createdAt,value
2017-11-24T00:00:08.319Z,16.21
2017-11-24T00:01:45.572Z,16.33
2017-11-24T00:03:22.762Z,16.31
2017-11-24T00:04:59.751Z,16.13
2017-11-24T00:06:36.685Z,16.09
2017-11-24T00:08:13.609Z,16.10
2017-11-24T00:09:51.146Z,16.01
2017-11-24T00:11:28.149Z,16.06
2017-11-24T00:13:04.952Z,16.07
2017-11-24T00:14:43.903Z,16.01
2017-11-24T00:16:22.387Z,16.04
2017-11-24T00:18:01.590Z,16.09
2017-11-24T00:19:42.980Z,16.01
2017-11-24T00:21:20.157Z,16.12
2017-11-24T00:22:58.577Z,15.98
2017-11-24T00:24:35.815Z,15.79
2017-11-24T00:26:13.730Z,15.85
2017-11-24T00:27:50.537Z,15.91
2017-11-24T00:29:27.916Z,15.67
2017-11-24T00:31:04.872Z,15.71
2017-11-24T00:32:42.412Z,15.94
2017-11-24T00:34:21.034Z,15.86
2017-11-24T00:35:58.614Z,15.60
2017-11-24T00:37:35.424Z,15.83
2017-11-24T00:39:12.434Z,15.93
2017-11-24T00:40:50.310Z,15.99
2017-11-24T00:42:29.263Z,15.94
2017-11-24T00:44:06.678Z,15.80
2017-11-24T00:45:45.045Z,15.78
2017-11-24T00:47:26.899Z,15.49
2017-11-24T00:49:08.193Z,15.65
2017-11-24T00:50:49.296Z,15.61
2017-11-24T00:52:26.861Z,15.30
2017-11-24T00:54:11.148Z,15.25
2017-11-24T00:56:05.451Z,15.55
2017-11-24T00:57:43.923Z,15.53
2017-11-24T00:59:21.193Z,15.08
2017-11-24T01:00:59.451Z,15.07
2017-11-24T01:02:37.750Z,15.02
2017-11-24T01:04:16.373Z,14.69
2017-11-24T01:05:53.293Z,14.64
2017-11-24T01:07:31.508Z,14.78
2017-11-24T01:09:09.865Z,14.82
2017-11-24T01:10:47.608Z,14.95
2017-11-24T01:12:33.537Z,14.96
2017-11-24T01:16:28.844Z,15.03
2017-11-24T01:18:10.074Z,15.42
2017-11-24T01:19:48.411Z,15.64
2017-11-24T01:21:25.380Z,15.87
2017-11-24T01:23:04.707Z,15.76
2017-11-24T01:24:42.614Z,15.48
2017-11-24T01:26:22.648Z,15.59
2017-11-24T01:27:59.575Z,15.49
2017-11-24T01:29:40.466Z,15.56
2017-11-24T01:31:19.372Z,15.75
2017-11-24T01:32:59.738Z,16.07
2017-11-24T01:34:42.945Z,16.29
2017-11-24T01:36:25.477Z,16.19
2017-11-24T01:38:02.558Z,16.34
2017-11-24T01:39:39.888Z,16.35
2017-11-24T01:41:17.435Z,15.77
2017-11-24T01:42:54.512Z,15.42
2017-11-24T01:44:31.684Z,15.33
2017-11-24T01:46:09.658Z,14.82
2017-11-24T01:47:49.970Z,14.68
2017-11-24T01:49:27.071Z,14.60
2017-11-24T01:51:04.786Z,14.38
2017-11-24T01:52:42.554Z,14.02
2017-11-24T01:54:19.666Z,13.26
2017-11-24T01:55:58.863Z,12.83
2017-11-24T01:57:36.340Z,12.67
2017-11-24T01:59:14.370Z,12.71
2017-11-24T02:00:53.524Z,12.63
2017-11-24T02:02:32.506Z,12.65
2017-11-24T02:04:11.325Z,12.68
2017-11-24T02:05:50.642Z,12.61
2017-11-24T02:07:28.676Z,12.53
2017-11-24T02:09:07.397Z,12.43
2017-11-24T02:10:45.229Z,12.15
2017-11-24T02:12:22.728Z,11.90
2017-11-24T02:14:22.553Z,11.82
2017-11-24T02:16:01.733Z,11.79
2017-11-24T02:17:39.361Z,11.63
2017-11-24T02:19:16.524Z,11.47
2017-11-24T02:20:53.509Z,11.33
2017-11-24T02:22:30.538Z,11.25
2017-11-24T02:24:08.066Z,11.21
2017-11-24T02:25:45.421Z,11.26
2017-11-24T02:27:22.818Z,11.37
2017-11-24T02:29:00.365Z,11.53
2017-11-24T02:30:38.420Z,11.49
2017-11-24T02:32:16.176Z,11.45
2017-11-24T02:33:53.391Z,11.49
2017-11-24T02:35:30.550Z,11.58
2017-11-24T02:37:08.294Z,11.66
2017-11-24T02:38:46.550Z,12.02
2017-11-24T02:40:23.823Z,12.59
2017-11-24T02:42:00.821Z,13.02
2017-11-24T02:43:39.135Z,13.34
2017-11-24T02:45:19.239Z,13.46
2017-11-24T02:46:58.317Z,13.58
2017-11-24T02:48:36.847Z,13.84
2017-11-24T02:50:14.258Z,14.06
2017-11-24T02:51:52.027Z,14.11
2017-11-24T02:53:29.002Z,14.14
2017-11-24T02:55:06.813Z,14.03
2017-11-24T02:56:49.169Z,13.69
2017-11-24T02:58:27.531Z,13.49
2017-11-24T03:00:06.702Z,12.91
2017-11-24T03:01:44.108Z,12.64
2017-11-24T03:03:21.208Z,12.44
2017-11-24T03:04:59.070Z,12.45
2017-11-24T03:06:35.858Z,12.56
2017-11-24T03:08:12.977Z,12.93
2017-11-24T03:09:51.577Z,13.19
2017-11-24T03:11:30.827Z,13.01
2017-11-24T03:13:08.039Z,12.91
2017-11-24T03:14:45.578Z,12.75
2017-11-24T03:16:23.298Z,12.78
2017-11-24T03:18:01.663Z,13.16
2017-11-24T03:19:38.622Z,13.74
2017-11-24T03:21:15.619Z,14.12
2017-11-24T03:22:53.574Z,14.34
2017-11-24T03:24:32.798Z,14.38
2017-11-24T03:26:12.009Z,14.44
2017-11-24T03:27:52.499Z,14.21
2017-11-24T03:29:29.757Z,13.69
2017-11-24T03:31:07.611Z,13.26
2017-11-24T03:32:44.590Z,12.99
2017-11-24T03:34:21.408Z,12.95
2017-11-24T03:36:00.301Z,12.98
2017-11-24T03:37:37.280Z,13.02
2017-11-24T03:39:14.730Z,12.96
2017-11-24T03:40:51.753Z,12.97
2017-11-24T03:42:29.150Z,12.71
2017-11-24T03:44:06.118Z,12.52
2017-11-24T03:45:44.342Z,12.41
2017-11-24T03:47:21.350Z,12.18
2017-11-24T03:48:58.144Z,12.13
2017-11-24T03:50:36.542Z,12.12
2017-11-24T03:52:13.375Z,12.18
2017-11-24T03:53:52.686Z,12.02
2017-11-24T03:55:31.000Z,11.89
2017-11-24T03:57:07.767Z,11.99
2017-11-24T03:58:44.683Z,11.88
2017-11-24T04:00:24.011Z,11.65
2017-11-24T04:02:03.220Z,11.42
2017-11-24T04:03:40.465Z,11.18
2017-11-24T04:05:17.536Z,11.00
2017-11-24T04:06:55.559Z,10.99
2017-11-24T04:08:36.330Z,11.01
2017-11-24T04:10:16.135Z,11.07
2017-11-24T04:11:56.047Z,11.05
2017-11-24T04:13:33.359Z,11.22
2017-11-24T04:15:10.309Z,11.34
2017-11-24T04:16:47.485Z,11.35
2017-11-24T04:18:25.172Z,11.48
2017-11-24T04:20:04.761Z,11.41
2017-11-24T04:21:42.988Z,11.61
2017-11-24T04:23:21.048Z,11.77
2017-11-24T04:24:58.069Z,12.08
2017-11-24T04:26:35.316Z,12.16
2017-11-24T04:28:12.189Z,12.08
2017-11-24T04:29:49.528Z,12.13
2017-11-24T04:31:27.374Z,12.47
2017-11-24T04:33:05.377Z,12.91
2017-11-24T04:34:42.177Z,13.37
2017-11-24T04:36:22.101Z,13.57
2017-11-24T04:38:00.353Z,13.66
2017-11-24T04:39:40.141Z,13.14
2017-11-24T04:41:18.845Z,12.34
2017-11-24T04:42:55.994Z,12.08
2017-11-24T04:44:36.147Z,12.15
2017-11-24T04:46:16.534Z,12.63
2017-11-24T04:47:55.844Z,12.61
2017-11-24T04:49:36.135Z,12.42
2017-11-24T04:51:14.781Z,12.35
2017-11-24T04:52:52.154Z,12.22
2017-11-24T04:54:29.647Z,11.98
2017-11-24T04:56:08.503Z,11.66
2017-11-24T04:57:47.097Z,11.53
2017-11-24T04:59:24.401Z,12.01
2017-11-24T05:01:01.253Z,12.45
2017-11-24T05:02:38.102Z,12.71
2017-11-24T05:04:14.965Z,12.94
2017-11-24T05:05:52.527Z,12.84
2017-11-24T05:07:30.146Z,12.93
2017-11-24T05:09:07.537Z,12.96
2017-11-24T05:10:44.750Z,12.84
2017-11-24T05:12:22.649Z,12.97
2017-11-24T05:14:00.273Z,13.28
2017-11-24T05:15:37.117Z,13.44
2017-11-24T05:17:14.393Z,13.40
2017-11-24T05:18:52.462Z,13.29
2017-11-24T05:20:29.946Z,13.61
2017-11-24T05:22:06.775Z,13.80
2017-11-24T05:23:44.119Z,13.85
2017-11-24T05:25:22.575Z,13.83
2017-11-24T05:27:00.930Z,13.63
2017-11-24T05:28:38.634Z,13.70
2017-11-24T05:30:17.924Z,13.79
2017-11-24T05:31:56.395Z,13.90
2017-11-24T05:33:33.182Z,13.97
2017-11-24T05:35:10.063Z,13.84
2017-11-24T05:36:49.476Z,13.68
2017-11-24T05:38:26.316Z,13.54
2017-11-24T05:40:05.158Z,13.36
2017-11-24T05:41:44.030Z,13.24
2017-11-24T05:43:23.834Z,13.15
2017-11-24T05:45:02.741Z,13.16
2017-11-24T05:46:40.093Z,13.04
2017-11-24T05:48:17.904Z,12.80
2017-11-24T05:49:55.555Z,12.59
2017-11-24T05:51:32.302Z,12.40
2017-11-24T05:53:10.328Z,12.43
2017-11-24T05:54:47.256Z,12.54
2017-11-24T05:56:25.071Z,12.57
2017-11-24T05:58:02.088Z,12.78
2017-11-24T05:59:42.187Z,12.79
2017-11-24T06:01:21.075Z,13.00
2017-11-24T06:02:59.979Z,13.09
2017-11-24T06:04:40.650Z,13.17
2017-11-24T06:06:18.318Z,13.19
2017-11-24T06:07:56.787Z,13.14
2017-11-24T06:09:34.118Z,12.91
2017-11-24T06:11:12.626Z,12.58
2017-11-24T06:12:50.351Z,12.45
2017-11-24T06:14:27.645Z,12.39
2017-11-24T06:16:05.778Z,12.45
2017-11-24T06:17:42.735Z,12.44
2017-11-24T06:19:19.586Z,12.52
2017-11-24T06:20:57.211Z,12.68
2017-11-24T06:22:34.637Z,12.82
2017-11-24T06:24:12.581Z,12.87
2017-11-24T06:25:50.287Z,12.93
2017-11-24T06:27:27.998Z,13.04
2017-11-24T06:29:05.480Z,13.09
2017-11-24T06:30:43.187Z,13.03
2017-11-24T06:32:21.334Z,13.00
2017-11-24T06:33:58.266Z,12.98
2017-11-24T06:35:35.448Z,12.75
2017-11-24T06:37:12.271Z,12.75
2017-11-24T06:38:49.097Z,12.74
2017-11-24T06:40:26.851Z,12.60
2017-11-24T06:42:04.943Z,12.62
2017-11-24T06:43:42.297Z,12.51
2017-11-24T06:45:19.698Z,12.71
2017-11-24T06:46:56.737Z,12.87
2017-11-24T06:48:35.770Z,12.61
2017-11-24T06:50:13.775Z,12.13
2017-11-24T06:51:51.505Z,12.37
2017-11-24T06:53:28.358Z,12.75
2017-11-24T06:55:06.400Z,12.72
2017-11-24T06:56:43.233Z,12.97
2017-11-24T06:58:20.529Z,13.32
2017-11-24T06:59:58.949Z,13.41
2017-11-24T07:01:37.552Z,13.45
2017-11-24T07:03:14.494Z,13.47
2017-11-24T07:04:52.446Z,13.49
2017-11-24T07:06:29.314Z,13.46
2017-11-24T07:08:06.751Z,13.39
2017-11-24T07:09:44.558Z,13.39
2017-11-24T07:11:24.099Z,13.38
2017-11-24T07:13:01.005Z,13.29
2017-11-24T07:14:38.402Z,13.32
2017-11-24T07:16:15.709Z,13.37
2017-11-24T07:17:55.696Z,12.98
2017-11-24T07:19:34.776Z,13.05
2017-11-24T07:21:14.479Z,13.21
2017-11-24T07:22:55.689Z,13.42
2017-11-24T07:24:34.690Z,13.24
2017-11-24T07:26:11.627Z,13.28
2017-11-24T07:27:49.731Z,13.40
2017-11-24T07:29:28.068Z,13.25
2017-11-24T07:31:05.535Z,13.28
2017-11-24T07:32:43.326Z,13.29
2017-11-24T07:34:24.639Z,12.82
2017-11-24T07:36:04.425Z,12.45
2017-11-24T07:37:43.328Z,12.43
2017-11-24T07:39:21.384Z,12.51
2017-11-24T07:40:58.447Z,13.06
2017-11-24T07:42:36.866Z,13.49
2017-11-24T07:44:13.935Z,13.52
2017-11-24T07:45:51.057Z,13.77
2017-11-24T07:47:29.863Z,13.80
2017-11-24T07:49:10.533Z,13.73
2017-11-24T07:50:47.636Z,13.64
2017-11-24T07:52:25.301Z,13.57
2017-11-24T07:54:03.665Z,13.53
2017-11-24T07:55:41.788Z,13.55
2017-11-24T07:57:20.341Z,13.31
2017-11-24T07:58:59.107Z,13.54
2017-11-24T08:00:37.471Z,13.74
2017-11-24T08:02:16.642Z,13.64
2017-11-24T08:03:57.837Z,13.58
2017-11-24T08:05:34.798Z,13.46
2017-11-24T08:07:12.157Z,13.35
2017-11-24T08:08:48.963Z,13.38
2017-11-24T08:10:27.385Z,13.36
2017-11-24T08:12:06.430Z,13.19
2017-11-24T08:13:50.847Z,13.12
2017-11-24T08:15:31.964Z,13.00
2017-11-24T08:17:09.615Z,12.95
2017-11-24T08:18:46.590Z,12.99
2017-11-24T08:20:23.708Z,13.08
2017-11-24T08:22:01.021Z,13.00
2017-11-24T08:23:40.936Z,12.91
2017-11-24T08:27:08.971Z,13.17
2017-11-24T08:28:47.381Z,13.20
2017-11-24T08:30:26.748Z,13.24
2017-11-24T08:32:05.095Z,13.07
2017-11-24T08:33:42.632Z,13.06
2017-11-24T08:35:19.503Z,13.23
2017-11-24T08:36:56.380Z,13.14
2017-11-24T08:38:34.716Z,13.17
2017-11-24T08:40:11.600Z,13.09
2017-11-24T08:41:48.466Z,13.00
2017-11-24T08:43:25.255Z,12.86
2017-11-24T08:45:03.404Z,12.81
2017-11-24T08:46:44.413Z,12.76
2017-11-24T08:50:31.117Z,12.67
2017-11-24T08:52:07.914Z,12.55
2017-11-24T08:53:44.752Z,12.53
2017-11-24T08:55:21.486Z,12.61
2017-11-24T08:56:58.772Z,12.63
2017-11-24T08:58:36.497Z,12.64
2017-11-24T09:00:16.274Z,12.64
2017-11-24T09:01:54.359Z,12.47
2017-11-24T09:03:32.667Z,12.16
2017-11-24T09:05:10.628Z,12.02
2017-11-24T09:06:48.172Z,12.08
2017-11-24T09:08:25.949Z,12.15
2017-11-24T09:10:03.307Z,12.19
2017-11-24T09:11:40.962Z,12.22
2017-11-24T09:13:19.350Z,12.34
2017-11-24T09:14:57.925Z,12.46
2017-11-24T09:16:37.137Z,12.49
2017-11-24T09:18:14.092Z,12.52
2017-11-24T09:21:34.574Z,12.50
2017-11-24T09:23:11.630Z,12.62
2017-11-24T09:24:49.261Z,12.63
2017-11-24T09:26:26.228Z,12.72
2017-11-24T09:28:05.152Z,12.82
2017-11-24T09:29:45.259Z,12.67
2017-11-24T09:31:25.554Z,12.55
2017-11-24T09:33:02.540Z,12.43
2017-11-24T09:34:39.481Z,12.44
2017-11-24T09:36:16.829Z,12.39
2017-11-24T09:37:53.761Z,12.48
2017-11-24T09:39:31.322Z,12.51
2017-11-24T09:41:08.872Z,12.37
2017-11-24T09:42:46.344Z,12.72
2017-11-24T09:44:23.133Z,12.93
2017-11-24T09:46:00.891Z,12.97
2017-11-24T09:47:37.874Z,12.86
2017-11-24T09:49:15.241Z,12.86
2017-11-24T09:50:52.817Z,12.92
2017-11-24T09:52:30.462Z,13.00
2017-11-24T09:54:07.917Z,12.92
2017-11-24T09:55:44.920Z,12.70
2017-11-24T09:57:23.290Z,12.58
2017-11-24T09:59:00.737Z,12.58
2017-11-24T10:00:37.734Z,12.53
2017-11-24T10:02:15.077Z,12.67
2017-11-24T10:03:51.930Z,12.80
2017-11-24T10:05:30.560Z,12.71
2017-11-24T10:07:07.609Z,12.64
2017-11-24T10:08:44.961Z,12.54
2017-11-24T10:10:21.797Z,12.60
2017-11-24T10:12:00.710Z,12.61
2017-11-24T10:13:39.228Z,12.79
2017-11-24T10:15:20.903Z,13.04
2017-11-24T10:16:59.794Z,13.08
2017-11-24T10:18:37.178Z,13.02
2017-11-24T10:20:13.908Z,12.87
2017-11-24T10:21:56.374Z,13.00
2017-11-24T10:23:33.295Z,13.24
2017-11-24T10:25:13.475Z,13.33
2017-11-24T10:26:50.465Z,13.27
2017-11-24T10:28:29.496Z,13.43
2017-11-24T10:30:06.504Z,13.71
2017-11-24T10:31:43.690Z,13.82
2017-11-24T10:33:20.523Z,13.76
2017-11-24T10:34:58.530Z,13.88
2017-11-24T10:36:35.417Z,13.85
2017-11-24T10:38:12.163Z,13.62
2017-11-24T10:39:49.897Z,13.44
2017-11-24T10:41:27.265Z,13.34
2017-11-24T10:43:04.734Z,13.13
2017-11-24T10:44:42.845Z,13.12
2017-11-24T10:46:20.002Z,13.36
2017-11-24T10:47:59.293Z,13.51
2017-11-24T10:49:36.323Z,13.54
2017-11-24T10:51:14.090Z,13.74
2017-11-24T10:52:50.969Z,13.46
2017-11-24T10:54:28.314Z,13.23
2017-11-24T10:56:05.317Z,12.94
2017-11-24T10:57:44.629Z,12.62
2017-11-24T10:59:22.225Z,12.74
2017-11-24T11:00:59.044Z,12.93
2017-11-24T11:02:37.543Z,13.11
2017-11-24T11:04:15.995Z,13.19
2017-11-24T11:05:54.897Z,13.14
2017-11-24T11:07:33.898Z,12.98
2017-11-24T11:09:10.974Z,12.93
2017-11-24T11:10:47.709Z,12.91
2017-11-24T11:12:26.548Z,12.94
2017-11-24T11:14:04.992Z,13.03
2017-11-24T11:15:44.938Z,13.04
2017-11-24T11:17:22.166Z,12.98
2017-11-24T11:18:59.565Z,13.00
2017-11-24T11:20:36.762Z,13.24
2017-11-24T11:22:15.245Z,13.33
2017-11-24T11:23:52.608Z,13.30
2017-11-24T11:25:31.035Z,13.15
2017-11-24T11:27:08.911Z,13.04
2017-11-24T11:28:52.983Z,12.85
2017-11-24T11:30:35.781Z,12.70
2017-11-24T11:32:15.371Z,12.59
2017-11-24T11:33:55.274Z,12.49
2017-11-24T11:35:34.369Z,12.62
2017-11-24T11:37:12.036Z,12.75
2017-11-24T11:38:51.177Z,12.85
2017-11-24T11:40:29.292Z,12.97
2017-11-24T11:42:06.700Z,12.60
2017-11-24T11:43:44.516Z,12.54
2017-11-24T11:45:22.044Z,12.50
2017-11-24T11:47:02.244Z,12.71
2017-11-24T11:48:39.242Z,12.95
2017-11-24T11:50:16.183Z,12.94
2017-11-24T11:51:54.023Z,12.97
2017-11-24T11:53:32.048Z,12.97
2017-11-24T11:55:09.062Z,12.92
2017-11-24T11:56:45.982Z,12.92
2017-11-24T11:58:23.485Z,12.83
2017-11-24T12:00:01.531Z,12.78
2017-11-24T12:01:39.657Z,12.69
2017-11-24T12:03:16.847Z,12.84
2017-11-24T12:04:57.735Z,12.96
2017-11-24T12:06:34.932Z,13.05
2017-11-24T12:08:12.332Z,12.97
2017-11-24T12:09:51.415Z,13.05
2017-11-24T12:11:32.263Z,13.32
2017-11-24T12:13:12.963Z,13.31
2017-11-24T12:14:50.474Z,13.29
2017-11-24T12:16:28.923Z,13.34
2017-11-24T12:18:07.975Z,13.18
2017-11-24T12:19:45.836Z,13.12
2017-11-24T12:21:23.519Z,13.10
2017-11-24T12:23:02.392Z,12.79
2017-11-24T12:24:42.889Z,12.60
2017-11-24T12:26:19.893Z,12.33
2017-11-24T12:27:57.641Z,12.40
2017-11-24T12:29:35.242Z,12.54
2017-11-24T12:31:15.427Z,12.23
2017-11-24T12:32:52.632Z,12.23
2017-11-24T12:34:31.222Z,12.35
2017-11-24T12:36:13.818Z,12.68
2017-11-24T12:37:56.603Z,12.82
2017-11-24T12:39:39.054Z,12.93
2017-11-24T12:41:19.704Z,12.76
2017-11-24T12:43:01.762Z,12.79
2017-11-24T12:44:43.440Z,12.81
2017-11-24T12:46:27.247Z,12.93
2017-11-24T12:48:08.643Z,13.13
2017-11-24T12:49:54.168Z,13.11
2017-11-24T12:51:38.839Z,13.06
2017-11-24T12:53:21.533Z,12.94
2017-11-24T12:55:01.423Z,12.78
2017-11-24T12:56:43.651Z,12.48
2017-11-24T12:58:24.723Z,12.34
2017-11-24T13:00:11.633Z,12.36
2017-11-24T13:02:06.248Z,12.46
2017-11-24T13:03:47.666Z,12.62
2017-11-24T13:05:30.205Z,12.74
2017-11-24T13:07:17.288Z,12.80
2017-11-24T13:08:59.519Z,12.81
2017-11-24T13:10:43.093Z,12.85
2017-11-24T13:12:24.989Z,13.06
2017-11-24T13:14:09.146Z,13.11
2017-11-24T13:15:50.516Z,13.16
2017-11-24T13:17:38.392Z,13.37
2017-11-24T13:19:23.349Z,13.61
2017-11-24T13:21:09.130Z,13.77
2017-11-24T13:22:52.975Z,13.96
2017-11-24T13:24:35.049Z,14.13
2017-11-24T13:26:17.265Z,14.18
2017-11-24T13:27:57.140Z,14.10
2017-11-24T13:29:38.033Z,14.18
2017-11-24T13:31:20.788Z,14.20
2017-11-24T13:33:03.617Z,14.11
2017-11-24T13:34:47.029Z,14.10
2017-11-24T13:36:32.952Z,14.15
2017-11-24T13:38:21.410Z,13.97
2017-11-24T13:40:04.041Z,13.70
2017-11-24T13:41:48.515Z,13.88
2017-11-24T13:43:34.194Z,13.85
2017-11-24T13:45:20.402Z,13.75
2017-11-24T13:47:04.673Z,13.19
2017-11-24T13:48:46.985Z,13.17
2017-11-24T13:50:34.880Z,13.46
2017-11-24T13:52:22.639Z,13.44
2017-11-24T13:54:05.370Z,13.41
2017-11-24T13:55:51.757Z,13.39
2017-11-24T13:57:37.670Z,13.45
2017-11-24T13:59:21.970Z,13.44
2017-11-24T14:01:09.202Z,13.38
2017-11-24T14:02:53.254Z,13.45
2017-11-24T14:04:38.095Z,13.41
2017-11-24T14:06:19.921Z,13.26
2017-11-24T14:08:03.099Z,13.13
2017-11-24T14:09:51.721Z,13.12
2017-11-24T14:11:34.996Z,12.89
2017-11-24T14:13:25.288Z,12.69
2017-11-24T14:15:14.871Z,12.82
2017-11-24T14:16:58.162Z,13.01
2017-11-24T14:18:40.674Z,13.22
2017-11-24T14:20:28.817Z,13.25
2017-11-24T14:22:12.481Z,13.20
2017-11-24T14:24:01.151Z,13.19
2017-11-24T14:25:50.575Z,13.08
2017-11-24T14:27:35.184Z,12.95
2017-11-24T14:29:17.306Z,12.77
2017-11-24T14:31:05.852Z,13.08
2017-11-24T14:32:50.325Z,12.93
2017-11-24T14:34:37.804Z,12.66
2017-11-24T14:36:22.447Z,13.05
2017-11-24T14:38:01.143Z,13.38
2017-11-24T14:39:46.260Z,13.54
2017-11-24T14:41:33.583Z,13.63
2017-11-24T14:43:17.792Z,13.75
2017-11-24T14:45:06.182Z,13.87
2017-11-24T14:46:53.043Z,13.52
2017-11-24T14:48:41.767Z,13.53
2017-11-24T14:50:28.516Z,13.53
2017-11-24T14:52:12.706Z,13.42
2017-11-24T14:53:57.040Z,13.57
2017-11-24T14:55:42.107Z,13.89
2017-11-24T14:57:31.604Z,14.08
2017-11-24T14:59:23.599Z,14.06
2017-11-24T15:01:08.931Z,13.88
2017-11-24T15:02:54.059Z,13.84
2017-11-24T15:04:41.735Z,14.01
2017-11-24T15:06:25.654Z,14.22
2017-11-24T15:08:13.535Z,14.14
2017-11-24T15:09:58.584Z,14.32
2017-11-24T15:11:41.533Z,14.17
2017-11-24T15:13:26.600Z,14.21
2017-11-24T15:15:12.061Z,14.04
2017-11-24T15:17:03.495Z,13.91
2017-11-24T15:18:49.499Z,14.19
2017-11-24T15:20:41.505Z,14.15
2017-11-24T15:22:28.893Z,14.24
2017-11-24T15:30:06.698Z,13.57
2017-11-24T15:32:00.296Z,13.45
2017-11-24T15:33:47.995Z,13.50
2017-11-24T15:35:42.106Z,13.73
2017-11-24T15:37:29.038Z,13.85
2017-11-24T15:39:20.047Z,13.91
2017-11-24T15:41:14.894Z,14.07
2017-11-24T15:43:06.217Z,14.06
2017-11-24T15:44:53.859Z,13.84
2017-11-24T15:46:40.209Z,13.52
2017-11-24T15:48:24.042Z,13.69
2017-11-24T15:50:11.149Z,13.76
2017-11-24T15:51:59.090Z,13.51
2017-11-24T15:53:43.225Z,13.45
2017-11-24T15:55:30.050Z,13.58
2017-11-24T15:57:18.759Z,13.44
2017-11-24T15:59:05.014Z,13.31
2017-11-24T16:00:51.722Z,13.17
2017-11-24T16:02:37.347Z,12.87
2017-11-24T16:04:21.803Z,12.82
2017-11-24T16:06:06.529Z,12.90
2017-11-24T16:07:52.992Z,12.94
2017-11-24T16:09:36.899Z,12.43
2017-11-24T16:11:30.677Z,11.92
2017-11-24T16:13:22.901Z,11.72
2017-11-24T16:15:08.880Z,11.78
2017-11-24T16:16:53.745Z,12.05
2017-11-24T16:18:39.599Z,12.54
2017-11-24T16:20:26.479Z,12.81
2017-11-24T16:22:10.099Z,12.74
2017-11-24T16:23:59.261Z,12.53
2017-11-24T16:25:43.394Z,12.46
2017-11-24T16:27:28.363Z,12.52
2017-11-24T16:29:11.988Z,12.42
2017-11-24T16:30:58.077Z,12.23
2017-11-24T16:32:41.776Z,12.24
2017-11-24T16:34:25.218Z,11.94
2017-11-24T16:36:07.543Z,11.77
2017-11-24T16:37:57.213Z,11.81
2017-11-24T16:39:43.440Z,11.70
2017-11-24T16:41:38.260Z,11.80
2017-11-24T16:43:26.361Z,12.02
2017-11-24T16:45:11.471Z,12.27
2017-11-24T16:46:55.870Z,12.24
2017-11-24T16:48:40.460Z,12.08
2017-11-24T16:50:28.240Z,11.75
2017-11-24T16:52:16.395Z,11.55
2017-11-24T16:54:00.521Z,11.75
2017-11-24T16:55:53.622Z,11.85
2017-11-24T16:57:39.551Z,11.68
2017-11-24T16:59:27.001Z,11.44
2017-11-24T17:01:11.019Z,11.30
2017-11-24T17:02:58.167Z,11.22
2017-11-24T17:04:43.642Z,11.08
2017-11-24T17:06:32.589Z,11.15
2017-11-24T17:08:22.413Z,11.30
2017-11-24T17:10:12.160Z,11.81
2017-11-24T17:11:58.914Z,12.23
2017-11-24T17:13:46.012Z,12.33
2017-11-24T17:15:36.021Z,12.37
2017-11-24T17:17:24.434Z,12.33
2017-11-24T17:19:22.349Z,12.36
2017-11-24T17:21:10.953Z,12.84
2017-11-24T17:22:57.785Z,12.82
2017-11-24T17:24:48.050Z,13.17
2017-11-24T17:26:34.164Z,13.41
2017-11-24T17:28:28.643Z,13.52
2017-11-24T17:30:16.121Z,13.29
2017-11-24T17:32:10.505Z,12.77
2017-11-24T17:34:06.635Z,12.31
2017-11-24T17:35:56.340Z,12.38
2017-11-24T17:37:53.245Z,12.32
2017-11-24T17:39:46.037Z,12.22
2017-11-24T17:41:37.394Z,12.06
2017-11-24T17:43:28.427Z,12.01
2017-11-24T17:45:11.398Z,11.96
2017-11-24T17:46:59.654Z,11.79
2017-11-24T17:48:45.493Z,11.63
2017-11-24T17:50:31.322Z,11.57
2017-11-24T17:52:16.929Z,11.44
2017-11-24T17:54:05.128Z,11.35
2017-11-24T17:55:50.315Z,11.51
2017-11-24T17:57:44.451Z,11.89
2017-11-24T17:59:37.128Z,12.43
2017-11-24T18:01:23.317Z,12.52
2017-11-24T18:03:12.065Z,12.66
2017-11-24T18:04:57.202Z,12.98
2017-11-24T18:06:43.755Z,13.19
2017-11-24T18:08:34.299Z,13.44
2017-11-24T18:10:21.164Z,13.59
2017-11-24T18:12:10.221Z,13.45
2017-11-24T18:13:57.758Z,13.59
2017-11-24T18:15:41.209Z,13.77
2017-11-24T18:17:35.596Z,13.83
2017-11-24T18:19:25.040Z,13.90
2017-11-24T18:21:11.011Z,13.93
2017-11-24T18:22:58.701Z,13.89
2017-11-24T18:24:43.265Z,13.90
2017-11-24T18:26:32.110Z,13.86
2017-11-24T18:28:19.915Z,13.79
2017-11-24T18:30:10.431Z,13.95
2017-11-24T18:31:55.456Z,13.97
2017-11-24T18:33:42.201Z,13.93
2017-11-24T18:35:26.902Z,13.84
2017-11-24T18:37:17.562Z,13.79
2017-11-24T18:39:11.207Z,13.69
2017-11-24T18:40:58.595Z,13.65
2017-11-24T18:42:46.907Z,13.47
2017-11-24T18:46:22.739Z,13.50
2017-11-24T18:48:09.638Z,13.52
2017-11-24T18:50:04.166Z,13.41
2017-11-24T18:55:57.419Z,13.63
2017-11-24T18:57:47.560Z,13.80
2017-11-24T18:59:33.486Z,13.91
2017-11-24T19:01:18.282Z,14.00
2017-11-24T19:03:02.747Z,13.79
2017-11-24T19:04:50.326Z,13.73
2017-11-24T19:06:35.915Z,13.86
2017-11-24T19:08:21.575Z,13.98
2017-11-24T19:10:07.524Z,14.06
2017-11-24T19:11:51.815Z,14.07
2017-11-24T19:13:35.143Z,14.04
2017-11-24T19:15:22.213Z,13.90
2017-11-24T19:17:23.076Z,13.91
2017-11-24T19:19:13.610Z,13.82
2017-11-24T19:20:59.568Z,13.72
2017-11-24T19:22:44.859Z,13.76
2017-11-24T19:24:36.879Z,13.80
2017-11-24T19:26:24.865Z,13.75
2017-11-24T19:28:10.592Z,13.79
2017-11-24T19:30:11.898Z,13.83
2017-11-24T19:32:01.413Z,13.83
2017-11-24T19:33:47.128Z,13.84
2017-11-24T19:35:35.528Z,13.79
2017-11-24T19:37:24.846Z,13.59
2017-11-24T19:39:09.919Z,13.51
2017-11-24T19:40:54.326Z,13.31
2017-11-24T19:42:41.110Z,13.03
2017-11-24T19:44:25.295Z,12.98
2017-11-24T19:46:16.505Z,12.70
2017-11-24T19:48:05.702Z,12.50
2017-11-24T19:49:49.663Z,12.51
2017-11-24T19:51:43.780Z,12.42
2017-11-24T19:53:28.656Z,12.46
2017-11-24T19:55:18.915Z,12.40
2017-11-24T19:57:09.384Z,12.16
2017-11-24T19:58:55.990Z,11.98
2017-11-24T20:00:42.659Z,11.71
2017-11-24T20:02:32.505Z,11.49
2017-11-24T20:04:16.708Z,11.30
2017-11-24T20:06:05.943Z,11.26
2017-11-24T20:07:52.553Z,11.22
2017-11-24T20:09:39.495Z,11.14
2017-11-24T20:11:23.357Z,11.15
2017-11-24T20:13:12.982Z,11.20
2017-11-24T20:15:05.708Z,11.29
2017-11-24T20:16:52.576Z,11.55
2017-11-24T20:18:43.373Z,11.69
2017-11-24T20:20:33.427Z,11.95
2017-11-24T20:22:20.800Z,11.96
2017-11-24T20:24:07.561Z,12.09
2017-11-24T20:25:49.258Z,12.17
2017-11-24T20:27:38.609Z,11.94
2017-11-24T20:29:22.247Z,11.73
2017-11-24T20:31:16.038Z,11.66
2017-11-24T20:33:01.298Z,11.86
2017-11-24T20:34:48.843Z,12.10
2017-11-24T20:36:39.137Z,12.37
2017-11-24T20:38:22.457Z,12.62
2017-11-24T20:40:05.500Z,12.81
2017-11-24T20:41:51.288Z,13.12
2017-11-24T20:43:48.510Z,13.17
2017-11-24T20:45:41.677Z,12.94
2017-11-24T20:47:30.582Z,12.41
2017-11-24T20:49:15.461Z,12.06
2017-11-24T20:51:03.382Z,11.93
2017-11-24T20:52:50.349Z,11.91
2017-11-24T20:54:38.632Z,11.73
2017-11-24T20:56:24.910Z,11.50
2017-11-24T20:58:18.585Z,11.26
2017-11-24T21:00:02.964Z,10.95
2017-11-24T21:01:49.150Z,10.74
2017-11-24T21:03:32.939Z,10.67
2017-11-24T21:05:17.338Z,10.63
2017-11-24T21:07:03.166Z,10.69
2017-11-24T21:08:52.878Z,10.66
2017-11-24T21:10:42.310Z,10.60
2017-11-24T21:12:30.159Z,10.40
2017-11-24T21:14:15.223Z,10.24
2017-11-24T21:16:00.878Z,10.35
2017-11-24T21:17:48.481Z,10.38
2017-11-24T21:19:31.789Z,10.75
2017-11-24T21:21:18.693Z,10.80
2017-11-24T21:23:03.813Z,10.81
2017-11-24T21:24:45.649Z,10.94
2017-11-24T21:26:30.337Z,11.15
2017-11-24T21:28:15.040Z,11.26
2017-11-24T21:29:58.634Z,11.34
2017-11-24T21:31:41.835Z,11.44
2017-11-24T21:33:30.862Z,11.61
2017-11-24T21:35:15.391Z,11.57
2017-11-24T21:36:59.921Z,11.53
2017-11-24T21:38:44.111Z,11.49
2017-11-24T21:40:27.656Z,11.20
2017-11-24T21:42:09.851Z,10.97
2017-11-24T21:43:51.659Z,10.79
2017-11-24T21:45:37.793Z,10.55
2017-11-24T21:47:23.675Z,10.32
2017-11-24T21:49:09.956Z,10.25
2017-11-24T21:50:53.086Z,10.34
2017-11-24T21:52:36.096Z,10.43
2017-11-24T21:54:21.561Z,10.40
2017-11-24T21:56:03.869Z,10.30
2017-11-24T21:57:44.125Z,10.21
2017-11-24T21:59:23.518Z,10.20
2017-11-24T22:01:01.670Z,10.29
2017-11-24T22:02:40.664Z,10.40
2017-11-24T22:04:20.583Z,10.42
2017-11-24T22:05:58.574Z,10.41
2017-11-24T22:07:42.339Z,10.61